Terminal Aerodrome Forecast
Issued by NWS Cleveland, OH

Home | Current Version | Previous Version | Text Only | Print | Product List | Glossary On
Versions: 1 2 3 4 5 6 7 8 9 10 11 12 13 14
000
FTUS41 KCLE 200500
TAFYNG
TAF
KYNG 200520Z 2006/2106 36003KT P6SM SCT015 OVC020
      TEMPO 2008/2012 BKN015 OVC020=

USA.gov is the U.S. government's official web portal to all federal, state and local government web resources and services.